Time;durP1;ratioP1;P1;durP2;ratioP2;P2;SDS_P1;SDS_P2;PMS_P1;PMS_P2;Temp;Humidity;BMP_temperature;BMP_pressure;BME280_temperature;BME280_humidity;BME280_pressure;Samples;Min_cycle;Max_cycle;Signal;HPM_P1;HPM_P2
2021/09/28 00:01:43;;;;;;;14.53;13.40;;;;;;;;;;5126096;27;24818;-59
2021/09/28 00:04:08;;;;;;;13.50;12.40;;;;;;;;;;5127946;27;25013;-59
2021/09/28 00:06:33;;;;;;;13.30;12.30;;;;;;;;;;5122811;27;24474;-58
2021/09/28 00:08:58;;;;;;;12.40;11.50;;;;;;;;;;5124922;27;24529;-60
2021/09/28 00:11:24;;;;;;;16.07;14.77;;;;;;;;;;5123724;27;24512;-60
2021/09/28 00:13:49;;;;;;;12.73;11.60;;;;;;;;;;5121639;27;24417;-59
2021/09/28 00:16:14;;;;;;;13.20;12.20;;;;;;;;;;5125494;27;24413;-59
2021/09/28 00:18:39;;;;;;;14.60;13.43;;;;;;;;;;5123332;27;24503;-58
2021/09/28 00:21:04;;;;;;;13.20;12.20;;;;;;;;;;5125419;27;25450;-59
2021/09/28 00:23:29;;;;;;;12.50;11.50;;;;;;;;;;5121538;27;24441;-59
2021/09/28 00:25:55;;;;;;;14.10;13.00;;;;;;;;;;5121658;27;24466;-59
2021/09/28 00:28:20;;;;;;;15.70;14.40;;;;;;;;;;5119084;27;24504;-59
2021/09/28 00:30:45;;;;;;;13.93;12.80;;;;;;;;;;5123561;27;24413;-59
2021/09/28 00:33:11;;;;;;;14.30;13.10;;;;;;;;;;5125278;27;26125;-59
2021/09/28 00:35:36;;;;;;;12.68;11.68;;;;;;;;;;5127844;27;24420;-59
2021/09/28 00:38:02;;;;;;;13.30;12.20;;;;;;;;;;5124348;27;24502;-59
2021/09/28 00:40:27;;;;;;;13.30;12.30;;;;;;;;;;5119778;27;24991;-59
2021/09/28 00:42:52;;;;;;;12.90;11.80;;;;;;;;;;5125276;27;24409;-59
2021/09/28 00:45:17;;;;;;;13.23;12.23;;;;;;;;;;5123764;27;24436;-60
2021/09/28 00:47:43;;;;;;;12.50;11.50;;;;;;;;;;5124556;27;24559;-59
2021/09/28 00:50:08;;;;;;;12.30;11.30;;;;;;;;;;5119953;27;24425;-59
2021/09/28 00:52:33;;;;;;;13.93;12.83;;;;;;;;;;5122886;27;24443;-59
2021/09/28 00:54:59;;;;;;;12.30;11.40;;;;;;;;;;5123273;27;24412;-59
2021/09/28 00:57:24;;;;;;;15.27;14.07;;;;;;;;;;5124018;27;24416;-59
2021/09/28 00:59:49;;;;;;;12.35;11.45;;;;;;;;;;5125113;27;24405;-59
2021/09/28 01:02:16;;;;;;;12.65;11.65;;;;;;;;;;5123883;27;25087;-58
2021/09/28 01:04:41;;;;;;;11.70;10.80;;;;;;;;;;5124731;27;24520;-59
2021/09/28 01:07:07;;;;;;;13.10;12.10;;;;;;;;;;5118567;27;24508;-60
2021/09/28 01:09:33;;;;;;;11.52;10.63;;;;;;;;;;5117694;27;24844;-59
2021/09/28 01:11:58;;;;;;;12.13;11.23;;;;;;;;;;5124535;27;24439;-60
2021/09/28 01:14:24;;;;;;;13.23;12.13;;;;;;;;;;5121903;27;24416;-59
2021/09/28 01:16:49;;;;;;;12.75;11.75;;;;;;;;;;5118455;27;24465;-59
2021/09/28 01:19:14;;;;;;;12.40;11.40;;;;;;;;;;5119496;27;24922;-59
2021/09/28 01:21:39;;;;;;;12.70;11.70;;;;;;;;;;5120342;27;24768;-59
2021/09/28 01:24:05;;;;;;;15.07;13.87;;;;;;;;;;5126209;27;24570;-59
2021/09/28 01:26:31;;;;;;;13.15;12.05;;;;;;;;;;5124324;27;24420;-60
2021/09/28 01:28:56;;;;;;;13.80;12.70;;;;;;;;;;5124074;27;24991;-59
2021/09/28 01:31:23;;;;;;;12.98;11.93;;;;;;;;;;5125861;27;24421;-58
2021/09/28 01:33:49;;;;;;;12.18;11.18;;;;;;;;;;5121852;27;24469;-59
2021/09/28 01:36:14;;;;;;;12.73;11.60;;;;;;;;;;5123661;27;24741;-59
2021/09/28 01:38:39;;;;;;;11.50;10.60;;;;;;;;;;5120748;27;24417;-59
2021/09/28 01:41:04;;;;;;;12.60;11.60;;;;;;;;;;5123022;27;24509;-59
2021/09/28 01:43:29;;;;;;;12.40;11.50;;;;;;;;;;5123374;27;24494;-59
2021/09/28 01:45:56;;;;;;;11.73;10.83;;;;;;;;;;5120288;27;25025;-59
2021/09/28 01:48:22;;;;;;;11.80;10.90;;;;;;;;;;5124569;27;24804;-59
2021/09/28 01:50:47;;;;;;;12.20;11.10;;;;;;;;;;5122850;27;24427;-59
2021/09/28 01:53:12;;;;;;;13.10;12.10;;;;;;;;;;5123782;27;24433;-59
2021/09/28 01:55:37;;;;;;;12.05;11.15;;;;;;;;;;5121685;27;24409;-61
2021/09/28 01:58:02;;;;;;;12.00;11.10;;;;;;;;;;5124512;27;25292;-58
2021/09/28 02:00:28;;;;;;;11.85;10.95;;;;;;;;;;5123453;27;24497;-59
2021/09/28 02:02:53;;;;;;;12.18;11.27;;;;;;;;;;5121289;27;24418;-59
2021/09/28 02:05:19;;;;;;;11.67;10.77;;;;;;;;;;5119364;27;25144;-59
2021/09/28 02:07:44;;;;;;;11.32;10.43;;;;;;;;;;5123358;27;24762;-59
2021/09/28 02:10:10;;;;;;;12.77;11.77;;;;;;;;;;5123221;27;24421;-59
2021/09/28 02:12:35;;;;;;;10.90;10.10;;;;;;;;;;5124204;27;24433;-59
2021/09/28 02:15:00;;;;;;;11.80;10.90;;;;;;;;;;5120548;27;24462;-59
2021/09/28 02:17:25;;;;;;;11.90;10.90;;;;;;;;;;5121002;27;24504;-59
2021/09/28 02:19:50;;;;;;;11.40;10.60;;;;;;;;;;5110142;27;24746;-59
2021/09/28 02:22:16;;;;;;;11.57;10.68;;;;;;;;;;5127140;27;24417;-59
2021/09/28 02:24:41;;;;;;;10.70;9.80;;;;;;;;;;5123381;27;24453;-59
2021/09/28 02:27:06;;;;;;;11.23;10.43;;;;;;;;;;5127116;27;24509;-59
2021/09/28 02:29:31;;;;;;;10.93;10.13;;;;;;;;;;5124072;27;24474;-59
2021/09/28 02:31:57;;;;;;;11.90;11.00;;;;;;;;;;5119827;27;24487;-60
2021/09/28 02:34:22;;;;;;;11.90;11.00;;;;;;;;;;5122286;27;24492;-59
2021/09/28 02:36:47;;;;;;;11.23;10.43;;;;;;;;;;5122382;27;24416;-60
2021/09/28 02:39:12;;;;;;;10.40;9.60;;;;;;;;;;5118985;27;26039;-59
2021/09/28 02:41:38;;;;;;;11.10;10.30;;;;;;;;;;5120512;27;24424;-59
2021/09/28 02:44:04;;;;;;;11.30;10.50;;;;;;;;;;5123607;27;24430;-57
2021/09/28 02:46:29;;;;;;;12.25;11.30;;;;;;;;;;5121660;27;24424;-58
2021/09/28 02:48:54;;;;;;;11.93;10.93;;;;;;;;;;5101432;27;24968;-58
2021/09/28 02:51:19;;;;;;;11.57;10.65;;;;;;;;;;5120908;28;24504;-60
2021/09/28 02:53:45;;;;;;;12.25;11.35;;;;;;;;;;5119384;28;24416;-58
2021/09/28 02:56:10;;;;;;;11.57;10.68;;;;;;;;;;5123178;28;24416;-58
2021/09/28 02:58:35;;;;;;;11.25;10.45;;;;;;;;;;5120616;28;24493;-61
2021/09/28 03:01:00;;;;;;;10.60;9.80;;;;;;;;;;5124613;28;24965;-61
2021/09/28 03:03:25;;;;;;;11.40;10.60;;;;;;;;;;5124932;27;24461;-61
2021/09/28 03:05:50;;;;;;;11.47;10.57;;;;;;;;;;5125327;27;24421;-59
2021/09/28 03:08:16;;;;;;;10.70;9.90;;;;;;;;;;5122471;27;24776;-59
2021/09/28 03:10:43;;;;;;;11.07;10.17;;;;;;;;;;5124960;27;24413;-59
2021/09/28 03:13:08;;;;;;;10.80;10.00;;;;;;;;;;5126643;27;24784;-58
2021/09/28 03:15:33;;;;;;;11.80;10.90;;;;;;;;;;5127045;27;24405;-59
2021/09/28 03:17:59;;;;;;;11.10;10.30;;;;;;;;;;5120432;27;24474;-59
2021/09/28 03:20:24;;;;;;;11.00;10.13;;;;;;;;;;5122347;27;25006;-59
2021/09/28 03:22:49;;;;;;;12.50;11.50;;;;;;;;;;5125419;27;24447;-59
2021/09/28 03:25:14;;;;;;;11.60;10.80;;;;;;;;;;5126786;27;24772;-59
2021/09/28 03:27:40;;;;;;;11.93;10.97;;;;;;;;;;5126886;27;24428;-60
2021/09/28 03:30:05;;;;;;;12.55;11.55;;;;;;;;;;5125112;27;24494;-59
2021/09/28 03:32:30;;;;;;;14.43;13.23;;;;;;;;;;5102429;27;25102;-59
2021/09/28 03:34:56;;;;;;;12.90;11.90;;;;;;;;;;5122242;27;24531;-59
2021/09/28 03:37:21;;;;;;;13.27;12.17;;;;;;;;;;5123598;27;24424;-59
2021/09/28 03:39:46;;;;;;;13.73;12.60;;;;;;;;;;5125415;27;25355;-59
2021/09/28 03:42:11;;;;;;;13.20;12.10;;;;;;;;;;5127720;27;24998;-58
2021/09/28 03:44:36;;;;;;;12.00;11.10;;;;;;;;;;5124126;27;24498;-58
2021/09/28 03:47:02;;;;;;;13.27;12.27;;;;;;;;;;5124167;27;24461;-59
2021/09/28 03:49:27;;;;;;;13.67;12.57;;;;;;;;;;5123085;27;24501;-59
2021/09/28 03:51:52;;;;;;;12.80;11.80;;;;;;;;;;5126011;27;24777;-59
2021/09/28 03:54:17;;;;;;;13.18;12.18;;;;;;;;;;5128181;27;24917;-58
2021/09/28 03:56:42;;;;;;;13.60;12.60;;;;;;;;;;5124408;27;24408;-58
2021/09/28 03:59:07;;;;;;;13.30;12.20;;;;;;;;;;5125593;27;24450;-59
2021/09/28 04:01:33;;;;;;;12.43;11.43;;;;;;;;;;5125674;27;24550;-59
2021/09/28 04:03:59;;;;;;;12.50;11.50;;;;;;;;;;5126461;27;24502;-59
2021/09/28 04:06:24;;;;;;;12.27;11.27;;;;;;;;;;5124050;27;24412;-59
2021/09/28 04:08:50;;;;;;;12.80;11.70;;;;;;;;;;5123671;27;24508;-59
2021/09/28 04:11:15;;;;;;;12.00;11.00;;;;;;;;;;5122264;27;24412;-58
2021/09/28 04:13:42;;;;;;;11.70;10.90;;;;;;;;;;5127510;27;24599;-58
2021/09/28 04:16:08;;;;;;;11.82;10.93;;;;;;;;;;5127232;27;24408;-58
2021/09/28 04:18:33;;;;;;;12.90;11.90;;;;;;;;;;5127039;27;24416;-58
2021/09/28 04:20:59;;;;;;;14.60;13.40;;;;;;;;;;5122956;27;24417;-59
2021/09/28 04:23:24;;;;;;;12.60;11.60;;;;;;;;;;5124461;27;24413;-59
2021/09/28 04:25:49;;;;;;;11.97;11.07;;;;;;;;;;5126738;27;24520;-59
2021/09/28 04:28:14;;;;;;;12.17;11.23;;;;;;;;;;5126842;27;24517;-59
2021/09/28 04:30:40;;;;;;;12.40;11.50;;;;;;;;;;5122783;27;24555;-58
2021/09/28 04:33:05;;;;;;;12.70;11.70;;;;;;;;;;5116797;27;24539;-59
2021/09/28 04:35:30;;;;;;;12.77;11.77;;;;;;;;;;5117576;27;24494;-58
2021/09/28 04:37:55;;;;;;;12.93;11.87;;;;;;;;;;5119127;27;24998;-58
2021/09/28 04:40:22;;;;;;;12.40;11.30;;;;;;;;;;5123801;27;24960;-59
2021/09/28 04:42:47;;;;;;;13.00;11.90;;;;;;;;;;5121119;27;24412;-59
2021/09/28 04:45:13;;;;;;;12.03;11.03;;;;;;;;;;5119956;27;24481;-59
2021/09/28 04:47:38;;;;;;;11.60;10.70;;;;;;;;;;5121640;27;24445;-59
2021/09/28 04:50:04;;;;;;;10.60;9.80;;;;;;;;;;5115679;27;24424;-59
2021/09/28 04:52:29;;;;;;;11.10;10.30;;;;;;;;;;5124731;27;24421;-59
2021/09/28 04:54:54;;;;;;;12.00;11.00;;;;;;;;;;5122083;27;24918;-59
2021/09/28 04:57:21;;;;;;;12.27;11.27;;;;;;;;;;5123030;27;24421;-59
2021/09/28 04:59:46;;;;;;;12.32;11.32;;;;;;;;;;5122891;27;24410;-59
2021/09/28 05:02:11;;;;;;;11.60;10.60;;;;;;;;;;5117870;27;24419;-59
2021/09/28 05:04:36;;;;;;;11.35;10.45;;;;;;;;;;5109597;27;24415;-58
2021/09/28 05:07:02;;;;;;;11.40;10.50;;;;;;;;;;5116601;27;24445;-59
2021/09/28 05:09:27;;;;;;;12.30;11.30;;;;;;;;;;5117071;27;24497;-58
2021/09/28 05:11:55;;;;;;;11.25;10.35;;;;;;;;;;5114843;27;24979;-58
2021/09/28 05:14:20;;;;;;;12.15;11.15;;;;;;;;;;5117214;27;24685;-58
2021/09/28 05:16:46;;;;;;;12.20;11.20;;;;;;;;;;5119112;27;24453;-58
2021/09/28 05:19:11;;;;;;;12.63;11.63;;;;;;;;;;5119752;27;24982;-58
2021/09/28 05:21:36;;;;;;;13.27;12.07;;;;;;;;;;5119283;27;24417;-58
2021/09/28 05:24:01;;;;;;;11.53;10.63;;;;;;;;;;5123548;27;24409;-58
2021/09/28 05:26:26;;;;;;;11.93;10.93;;;;;;;;;;5123666;27;24411;-58
2021/09/28 05:28:52;;;;;;;12.40;11.37;;;;;;;;;;5121013;27;24457;-59
2021/09/28 05:31:17;;;;;;;10.90;10.00;;;;;;;;;;5119306;27;25037;-57
2021/09/28 05:33:42;;;;;;;10.47;9.57;;;;;;;;;;5120562;27;24441;-58
2021/09/28 05:36:07;;;;;;;11.00;10.10;;;;;;;;;;5124513;27;24500;-58
2021/09/28 05:38:33;;;;;;;11.80;10.80;;;;;;;;;;5122321;27;24424;-59
2021/09/28 05:40:59;;;;;;;13.03;11.93;;;;;;;;;;5122803;27;24388;-59
2021/09/28 05:43:24;;;;;;;11.00;10.10;;;;;;;;;;5120828;27;24527;-58
2021/09/28 05:45:49;;;;;;;10.40;9.60;;;;;;;;;;5118879;27;24528;-58
2021/09/28 05:48:14;;;;;;;11.43;10.53;;;;;;;;;;5120617;27;24408;-59
2021/09/28 05:50:41;;;;;;;9.85;9.05;;;;;;;;;;5122549;27;24397;-57
2021/09/28 05:53:08;;;;;;;10.48;9.68;;;;;;;;;;5118725;27;24437;-58
2021/09/28 05:55:33;;;;;;;11.35;10.45;;;;;;;;;;5124644;27;24413;-59
2021/09/28 05:57:59;;;;;;;13.55;12.45;;;;;;;;;;5112084;27;24803;-59
2021/09/28 06:00:24;;;;;;;14.02;12.90;;;;;;;;;;5108719;27;24386;-59
2021/09/28 06:02:49;;;;;;;14.07;12.87;;;;;;;;;;5126394;27;24405;-59
2021/09/28 06:05:14;;;;;;;13.00;12.00;;;;;;;;;;5115029;27;25036;-59
2021/09/28 06:07:40;;;;;;;12.57;11.57;;;;;;;;;;5123129;27;24402;-60
2021/09/28 06:10:05;;;;;;;11.63;10.82;;;;;;;;;;5126978;27;24506;-59
2021/09/28 06:12:31;;;;;;;12.17;11.17;;;;;;;;;;5125036;27;25026;-59
2021/09/28 06:14:56;;;;;;;16.30;14.90;;;;;;;;;;5127473;27;24401;-59
2021/09/28 06:17:21;;;;;;;14.93;13.73;;;;;;;;;;5126918;27;24421;-60
2021/09/28 06:19:47;;;;;;;14.60;13.50;;;;;;;;;;5126688;27;24425;-59
2021/09/28 06:22:12;;;;;;;17.17;15.68;;;;;;;;;;5123280;27;24836;-60
2021/09/28 06:24:37;;;;;;;19.10;17.40;;;;;;;;;;5125502;27;24517;-60
2021/09/28 06:27:04;;;;;;;19.20;17.60;;;;;;;;;;5124377;27;24416;-59
2021/09/28 06:29:29;;;;;;;18.30;16.70;;;;;;;;;;5127391;27;24438;-59
2021/09/28 06:31:55;;;;;;;17.42;16.02;;;;;;;;;;5126487;27;24524;-59
2021/09/28 06:34:20;;;;;;;16.33;14.93;;;;;;;;;;5116102;27;25066;-61
2021/09/28 06:36:45;;;;;;;17.63;16.13;;;;;;;;;;5126469;27;24409;-60
2021/09/28 06:39:10;;;;;;;18.25;16.70;;;;;;;;;;5126573;27;24956;-61
2021/09/28 06:41:35;;;;;;;19.80;18.10;;;;;;;;;;5126717;27;24404;-60
2021/09/28 06:44:01;;;;;;;14.82;13.63;;;;;;;;;;5127623;27;24613;-60
2021/09/28 06:46:26;;;;;;;16.17;14.80;;;;;;;;;;5125980;27;24410;-60
2021/09/28 06:48:51;;;;;;;18.23;16.63;;;;;;;;;;5123879;27;24584;-60
2021/09/28 06:51:16;;;;;;;14.43;13.33;;;;;;;;;;5126702;27;24401;-60
2021/09/28 06:53:44;;;;;;;12.40;11.40;;;;;;;;;;5123496;28;24472;-60
2021/09/28 06:56:10;;;;;;;12.77;11.77;;;;;;;;;;5118192;28;25012;-58
2021/09/28 06:58:35;;;;;;;11.00;10.10;;;;;;;;;;5117545;28;24453;-61
2021/09/28 07:01:00;;;;;;;10.27;9.48;;;;;;;;;;5120687;28;24772;-62
2021/09/28 07:03:25;;;;;;;10.80;9.82;;;;;;;;;;5121097;28;25051;-59
2021/09/28 07:05:50;;;;;;;10.15;9.35;;;;;;;;;;5123524;28;24385;-61
2021/09/28 07:08:16;;;;;;;9.43;8.63;;;;;;;;;;5121392;28;24440;-61
2021/09/28 07:10:41;;;;;;;9.00;8.30;;;;;;;;;;5117432;28;24952;-60
2021/09/28 07:13:07;;;;;;;9.60;8.70;;;;;;;;;;5120488;28;24765;-58
2021/09/28 07:15:32;;;;;;;8.40;7.80;;;;;;;;;;5113301;28;24406;-59
2021/09/28 07:17:57;;;;;;;7.50;6.90;;;;;;;;;;5102736;28;24917;-59
2021/09/28 07:20:22;;;;;;;8.10;7.50;;;;;;;;;;5119375;28;24416;-58
2021/09/28 07:22:48;;;;;;;6.73;6.23;;;;;;;;;;5118029;28;24396;-63
2021/09/28 07:25:13;;;;;;;6.43;5.93;;;;;;;;;;5117443;28;24866;-59
2021/09/28 07:27:38;;;;;;;5.45;5.05;;;;;;;;;;5120896;28;25055;-59
2021/09/28 07:30:04;;;;;;;7.17;6.57;;;;;;;;;;5123020;28;24413;-59
2021/09/28 07:32:29;;;;;;;6.63;6.13;;;;;;;;;;5121158;28;24413;-59
2021/09/28 07:34:54;;;;;;;5.23;4.93;;;;;;;;;;5119047;28;24486;-59
2021/09/28 07:37:26;;;;;;;5.67;5.27;;;;;;;;;;5119151;28;24505;-59
2021/09/28 07:39:51;;;;;;;4.70;4.40;;;;;;;;;;5117681;28;24445;-58
2021/09/28 07:42:16;;;;;;;5.22;4.72;;;;;;;;;;5123131;28;24393;-60
2021/09/28 07:44:42;;;;;;;4.60;4.10;;;;;;;;;;5121267;28;24389;-58
2021/09/28 07:47:07;;;;;;;4.40;4.00;;;;;;;;;;5116170;27;24421;-60
2021/09/28 07:49:32;;;;;;;3.90;3.60;;;;;;;;;;5119807;27;24401;-59
2021/09/28 07:51:57;;;;;;;3.60;3.30;;;;;;;;;;5121206;27;24421;-59
2021/09/28 07:54:23;;;;;;;3.70;3.40;;;;;;;;;;5124153;27;24389;-59
2021/09/28 07:56:48;;;;;;;3.50;3.20;;;;;;;;;;5125647;27;24476;-59
2021/09/28 07:59:13;;;;;;;3.95;3.55;;;;;;;;;;5126338;27;24996;-60
2021/09/28 08:01:38;;;;;;;3.53;3.22;;;;;;;;;;5123874;27;24393;-60
2021/09/28 08:04:04;;;;;;;2.70;2.03;;;;;;;;;;5120334;27;24499;-60
2021/09/28 08:06:29;;;;;;;3.00;2.70;;;;;;;;;;5124406;27;24393;-59
2021/09/28 08:08:54;;;;;;;5.13;3.47;;;;;;;;;;5126638;27;24754;-59
2021/09/28 08:11:19;;;;;;;4.00;3.70;;;;;;;;;;5125970;27;24753;-59
2021/09/28 08:13:45;;;;;;;3.30;3.00;;;;;;;;;;5123812;27;24436;-58
2021/09/28 08:16:10;;;;;;;3.38;3.17;;;;;;;;;;5120299;27;24468;-59
2021/09/28 08:18:35;;;;;;;4.60;3.93;;;;;;;;;;5118524;27;24994;-60
2021/09/28 08:21:00;;;;;;;4.40;4.00;;;;;;;;;;5124418;27;24566;-59
2021/09/28 08:23:26;;;;;;;4.30;3.90;;;;;;;;;;5124195;27;24420;-59
2021/09/28 08:31:03;;;;;;;4.63;4.22;;;;;;;;;;5129559;27;24421;-60
2021/09/28 08:33:29;;;;;;;4.67;4.23;;;;;;;;;;5125380;27;24437;-60
2021/09/28 08:35:54;;;;;;;4.87;4.30;;;;;;;;;;5129596;27;25357;-60
2021/09/28 08:38:20;;;;;;;4.80;4.30;;;;;;;;;;5127963;27;24449;-60
2021/09/28 08:40:45;;;;;;;4.00;3.70;;;;;;;;;;5123457;27;24397;-60
2021/09/28 08:43:10;;;;;;;4.28;3.88;;;;;;;;;;5123914;27;24392;-60
2021/09/28 08:45:35;;;;;;;3.80;3.40;;;;;;;;;;5119599;27;24453;-61
2021/09/28 08:48:00;;;;;;;3.40;3.20;;;;;;;;;;5121884;27;24485;-59
2021/09/28 08:50:25;;;;;;;4.68;4.28;;;;;;;;;;5123371;27;24409;-59
2021/09/28 08:52:51;;;;;;;2.83;2.63;;;;;;;;;;5122752;27;24944;-59
2021/09/28 08:55:17;;;;;;;3.83;3.53;;;;;;;;;;5118047;27;24403;-59
2021/09/28 08:57:42;;;;;;;3.50;3.20;;;;;;;;;;5114696;27;24417;-60
2021/09/28 09:00:28;;;;;;;4.00;3.70;;;;;;;;;;5121108;27;24586;-61
2021/09/28 09:02:53;;;;;;;4.43;4.03;;;;;;;;;;5120118;27;24533;-60
2021/09/28 09:05:19;;;;;;;3.80;3.40;;;;;;;;;;5122375;27;24450;-61
2021/09/28 09:07:57;;;;;;;4.40;3.95;;;;;;;;;;5117488;27;24424;-61
2021/09/28 09:10:27;;;;;;;5.13;4.20;;;;;;;;;;5117802;27;25006;-61
2021/09/28 09:12:52;;;;;;;3.92;3.40;;;;;;;;;;5120549;27;24935;-61
2021/09/28 09:15:36;;;;;;;5.00;3.33;;;;;;;;;;5124593;27;24413;-61
2021/09/28 09:18:05;;;;;;;4.25;3.58;;;;;;;;;;5124056;27;25496;-59
2021/09/28 09:20:30;;;;;;;3.60;3.13;;;;;;;;;;5119637;27;24409;-61
2021/09/28 09:23:11;;;;;;;3.10;2.80;;;;;;;;;;5116348;27;24410;-59
2021/09/28 09:25:37;;;;;;;3.28;2.97;;;;;;;;;;5108455;28;24423;-60
2021/09/28 09:28:16;;;;;;;2.93;2.60;;;;;;;;;;5113955;27;24425;-60
2021/09/28 09:30:42;;;;;;;5.72;3.47;;;;;;;;;;5122025;27;24951;-59
2021/09/28 09:33:07;;;;;;;4.45;3.38;;;;;;;;;;5120179;27;24437;-59
2021/09/28 09:35:33;;;;;;;5.20;3.10;;;;;;;;;;5117933;27;24744;-60
2021/09/28 09:38:10;;;;;;;3.38;3.08;;;;;;;;;;5120494;27;24413;-59
2021/09/28 09:40:36;;;;;;;3.63;3.00;;;;;;;;;;5124499;27;24449;-59
2021/09/28 09:43:02;;;;;;;4.10;3.67;;;;;;;;;;5124407;27;24402;-58
2021/09/28 09:45:27;;;;;;;3.58;3.28;;;;;;;;;;5122592;27;24505;-59
2021/09/28 09:47:52;;;;;;;2.87;2.70;;;;;;;;;;5120046;27;24417;-59
2021/09/28 09:50:18;;;;;;;2.50;2.30;;;;;;;;;;5118897;27;24550;-60
2021/09/28 09:52:56;;;;;;;3.42;3.20;;;;;;;;;;5124128;27;24429;-59
2021/09/28 09:55:25;;;;;;;3.20;2.90;;;;;;;;;;5124313;27;24753;-60
2021/09/28 09:57:50;;;;;;;2.40;2.30;;;;;;;;;;5121700;27;24402;-60
2021/09/28 10:00:15;;;;;;;3.08;2.88;;;;;;;;;;5120203;27;24866;-60
2021/09/28 10:02:40;;;;;;;4.50;3.60;;;;;;;;;;5117880;27;24534;-60
2021/09/28 10:05:05;;;;;;;2.70;2.50;;;;;;;;;;5120524;27;24393;-61
2021/09/28 10:07:30;;;;;;;3.93;3.63;;;;;;;;;;5121561;27;24409;-59
2021/09/28 10:09:56;;;;;;;3.80;2.95;;;;;;;;;;5123646;27;24385;-59
2021/09/28 10:12:21;;;;;;;2.27;2.07;;;;;;;;;;5120866;27;24482;-58
2021/09/28 10:14:46;;;;;;;3.33;3.03;;;;;;;;;;5121353;27;24752;-58
2021/09/28 10:17:17;;;;;;;2.80;2.60;;;;;;;;;;5119392;27;24469;-60
2021/09/28 10:19:44;;;;;;;2.63;2.30;;;;;;;;;;5117910;27;24714;-59
2021/09/28 10:22:29;;;;;;;3.20;2.90;;;;;;;;;;5121525;27;24513;-59
2021/09/28 10:25:14;;;;;;;2.70;2.50;;;;;;;;;;5119612;27;24809;-60
2021/09/28 10:27:39;;;;;;;2.00;1.90;;;;;;;;;;5116822;27;24429;-60
2021/09/28 10:30:04;;;;;;;2.90;2.70;;;;;;;;;;5124022;27;24982;-59
2021/09/28 10:32:36;;;;;;;3.17;2.87;;;;;;;;;;5124248;27;24417;-60
2021/09/28 10:35:02;;;;;;;2.22;2.13;;;;;;;;;;5104232;28;24461;-59
2021/09/28 10:37:42;;;;;;;3.63;3.20;;;;;;;;;;5103882;28;24494;-59
2021/09/28 10:40:07;;;;;;;2.80;2.60;;;;;;;;;;5097026;28;24633;-59
2021/09/28 10:42:52;;;;;;;3.00;2.80;;;;;;;;;;5099830;28;25081;-58
2021/09/28 10:45:18;;;;;;;4.20;3.08;;;;;;;;;;5098423;28;24526;-59
2021/09/28 10:47:44;;;;;;;3.10;2.80;;;;;;;;;;5100152;28;24533;-59
2021/09/28 10:50:21;;;;;;;3.60;3.30;;;;;;;;;;5103673;28;24513;-59
2021/09/28 10:52:47;;;;;;;3.67;3.38;;;;;;;;;;5102615;28;24529;-59
2021/09/28 10:55:12;;;;;;;2.90;2.70;;;;;;;;;;5100679;28;24505;-61
2021/09/28 10:57:56;;;;;;;2.65;2.45;;;;;;;;;;5099289;28;24804;-60
2021/09/28 11:00:22;;;;;;;2.55;2.35;;;;;;;;;;5096774;28;24416;-60
2021/09/28 11:02:51;;;;;;;2.70;2.40;;;;;;;;;;5093588;28;24410;-60
2021/09/28 11:05:28;;;;;;;3.10;2.80;;;;;;;;;;5103406;28;24415;-59
2021/09/28 11:07:53;;;;;;;4.13;3.30;;;;;;;;;;5089515;28;24535;-59
2021/09/28 11:10:18;;;;;;;3.30;3.10;;;;;;;;;;5103527;28;24501;-59
2021/09/28 11:12:44;;;;;;;3.00;2.80;;;;;;;;;;5093880;28;24461;-59
2021/09/28 11:15:09;;;;;;;2.85;2.65;;;;;;;;;;5093981;28;24712;-59
2021/09/28 11:17:34;;;;;;;2.77;2.57;;;;;;;;;;5100593;28;24392;-59
2021/09/28 11:19:59;;;;;;;3.73;3.43;;;;;;;;;;5096034;28;25072;-59
2021/09/28 11:22:25;;;;;;;3.10;2.90;;;;;;;;;;5097422;28;24490;-59
2021/09/28 11:24:50;;;;;;;3.03;2.83;;;;;;;;;;5098673;28;24406;-58
2021/09/28 11:27:15;;;;;;;3.30;3.00;;;;;;;;;;5099988;27;24410;-59
2021/09/28 11:29:41;;;;;;;3.13;2.93;;;;;;;;;;5100781;28;24421;-58
2021/09/28 11:32:06;;;;;;;3.10;2.80;;;;;;;;;;5103247;28;24417;-59
2021/09/28 11:34:36;;;;;;;3.50;3.20;;;;;;;;;;5120812;27;24439;-59
2021/09/28 11:37:03;;;;;;;3.90;3.60;;;;;;;;;;5124857;27;25006;-59
2021/09/28 11:39:32;;;;;;;4.40;4.00;;;;;;;;;;5123565;27;24423;-58
2021/09/28 11:41:58;;;;;;;3.60;3.30;;;;;;;;;;5118439;27;24471;-59
2021/09/28 11:44:31;;;;;;;2.93;2.73;;;;;;;;;;5119173;27;24417;-60
2021/09/28 11:46:57;;;;;;;3.25;2.95;;;;;;;;;;5123529;27;24473;-60
2021/09/28 11:49:22;;;;;;;3.80;3.40;;;;;;;;;;5122421;27;24508;-60
2021/09/28 11:51:48;;;;;;;3.15;2.95;;;;;;;;;;5124422;27;24462;-60
2021/09/28 11:54:17;;;;;;;2.60;2.40;;;;;;;;;;5126230;27;24456;-60
2021/09/28 11:56:44;;;;;;;2.20;2.10;;;;;;;;;;5122391;27;24444;-60
2021/09/28 11:59:10;;;;;;;2.22;2.13;;;;;;;;;;5121004;27;24409;-59
2021/09/28 12:01:35;;;;;;;2.90;2.70;;;;;;;;;;5121978;27;24554;-60
2021/09/28 12:06:59;;;;;;;2.70;2.50;;;;;;;;;;5121420;27;24644;-58
2021/09/28 12:09:24;;;;;;;2.60;2.40;;;;;;;;;;5114196;27;24489;-59
2021/09/28 12:12:02;;;;;;;2.70;2.50;;;;;;;;;;5126570;27;24405;-58
2021/09/28 12:14:35;;;;;;;2.80;2.60;;;;;;;;;;5121519;27;24474;-59
2021/09/28 12:17:13;;;;;;;2.90;2.70;;;;;;;;;;5113087;27;24847;-59
2021/09/28 12:19:41;;;;;;;2.42;2.15;;;;;;;;;;5122282;27;25093;-59
2021/09/28 12:22:06;;;;;;;2.72;2.60;;;;;;;;;;5126547;27;24420;-59
2021/09/28 12:24:45;;;;;;;2.60;2.40;;;;;;;;;;5117688;27;25201;-60
2021/09/28 12:27:11;;;;;;;2.90;2.70;;;;;;;;;;5123026;27;24605;-61
2021/09/28 12:29:44;;;;;;;3.70;3.13;;;;;;;;;;5123946;27;24511;-61
2021/09/28 12:32:18;;;;;;;2.50;2.40;;;;;;;;;;5123684;27;24558;-60
2021/09/28 12:34:50;;;;;;;2.90;2.70;;;;;;;;;;5126327;27;24488;-59
2021/09/28 12:37:16;;;;;;;2.70;2.50;;;;;;;;;;5110190;27;24409;-61
2021/09/28 12:39:56;;;;;;;2.40;2.20;;;;;;;;;;5126578;27;24777;-59
2021/09/28 12:42:21;;;;;;;2.35;2.20;;;;;;;;;;5121291;27;24408;-61
2021/09/28 12:44:57;;;;;;;2.40;2.30;;;;;;;;;;5126990;27;24413;-60
2021/09/28 12:47:28;;;;;;;2.55;2.35;;;;;;;;;;5125030;27;24442;-60
2021/09/28 12:49:53;;;;;;;1.80;1.70;;;;;;;;;;5124914;27;24409;-59
2021/09/28 12:52:19;;;;;;;2.20;2.10;;;;;;;;;;5122556;27;24988;-60
2021/09/28 12:54:44;;;;;;;2.60;2.40;;;;;;;;;;5123620;27;25011;-60
2021/09/28 12:57:09;;;;;;;1.90;1.80;;;;;;;;;;5125901;27;24395;-59
2021/09/28 12:59:34;;;;;;;1.60;1.50;;;;;;;;;;5123334;27;24437;-60
2021/09/28 13:01:59;;;;;;;2.63;2.43;;;;;;;;;;5123522;27;24757;-59
2021/09/28 13:04:24;;;;;;;2.67;2.47;;;;;;;;;;5121137;27;24971;-59
2021/09/28 13:06:55;;;;;;;2.40;2.20;;;;;;;;;;5119786;27;24433;-59
2021/09/28 13:09:20;;;;;;;2.70;2.50;;;;;;;;;;5121350;27;24393;-59
2021/09/28 13:11:46;;;;;;;2.50;2.30;;;;;;;;;;5104656;28;24447;-58
2021/09/28 13:14:11;;;;;;;2.70;2.50;;;;;;;;;;5104561;28;24394;-60
2021/09/28 13:16:36;;;;;;;2.00;1.90;;;;;;;;;;5100675;28;24389;-59
2021/09/28 13:19:02;;;;;;;2.23;2.13;;;;;;;;;;5098822;28;24398;-59
2021/09/28 13:21:27;;;;;;;2.10;2.00;;;;;;;;;;5114543;27;25314;-59
2021/09/28 13:23:52;;;;;;;1.90;1.80;;;;;;;;;;5123324;27;24396;-59
2021/09/28 13:26:17;;;;;;;2.60;2.40;;;;;;;;;;5124933;27;24480;-59
2021/09/28 13:28:42;;;;;;;2.70;2.50;;;;;;;;;;5122696;27;24393;-59
2021/09/28 13:31:08;;;;;;;1.80;1.70;;;;;;;;;;5122659;27;24457;-59
2021/09/28 13:33:33;;;;;;;2.30;2.10;;;;;;;;;;5120514;27;24441;-58
2021/09/28 13:35:59;;;;;;;2.20;2.00;;;;;;;;;;5116819;27;24417;-59
2021/09/28 13:38:24;;;;;;;1.80;1.70;;;;;;;;;;5112569;27;24460;-58
2021/09/28 13:40:50;;;;;;;1.73;1.63;;;;;;;;;;5104468;27;24389;-58
2021/09/28 13:43:16;;;;;;;1.90;1.80;;;;;;;;;;5124372;27;24405;-59
2021/09/28 13:45:41;;;;;;;2.00;1.80;;;;;;;;;;5122453;27;24520;-58
2021/09/28 13:48:08;;;;;;;2.00;1.70;;;;;;;;;;5118644;27;24488;-58
2021/09/28 13:50:33;;;;;;;2.15;1.80;;;;;;;;;;5118558;27;24481;-58
2021/09/28 13:52:58;;;;;;;2.63;1.50;;;;;;;;;;5123668;27;24902;-59
2021/09/28 13:55:23;;;;;;;1.80;1.70;;;;;;;;;;5124184;27;24385;-58
2021/09/28 13:57:49;;;;;;;1.88;1.70;;;;;;;;;;5122337;27;24934;-58
2021/09/28 14:00:14;;;;;;;2.00;1.90;;;;;;;;;;5120657;27;24388;-59
2021/09/28 14:02:39;;;;;;;1.60;1.50;;;;;;;;;;5117706;27;24409;-59
2021/09/28 14:05:04;;;;;;;1.80;1.70;;;;;;;;;;5123796;27;24737;-59
2021/09/28 14:07:30;;;;;;;1.80;1.70;;;;;;;;;;5121982;27;24441;-59
2021/09/28 14:09:55;;;;;;;1.48;1.38;;;;;;;;;;5123991;27;24982;-59
2021/09/28 14:12:20;;;;;;;1.70;1.60;;;;;;;;;;5123998;27;24412;-59
2021/09/28 14:14:45;;;;;;;1.60;1.50;;;;;;;;;;5117559;27;24428;-59
2021/09/28 14:17:10;;;;;;;1.80;1.70;;;;;;;;;;5118324;27;24434;-59
2021/09/28 14:19:36;;;;;;;1.60;1.50;;;;;;;;;;5123500;27;24386;-59
2021/09/28 14:22:01;;;;;;;1.50;1.40;;;;;;;;;;5123809;27;24446;-59
2021/09/28 14:24:26;;;;;;;1.70;1.60;;;;;;;;;;5123960;27;24452;-59
2021/09/28 14:26:51;;;;;;;1.85;1.73;;;;;;;;;;5119232;27;24385;-59
2021/09/28 14:29:17;;;;;;;1.60;1.50;;;;;;;;;;5101233;27;24397;-60
2021/09/28 14:31:42;;;;;;;5.93;5.40;;;;;;;;;;5118122;27;24491;-60
2021/09/28 14:34:11;;;;;;;21.67;19.33;;;;;;;;;;5120625;27;24842;-60